createdAt,value
2023-04-06T00:00:12.783Z,101607.13
2023-04-06T00:03:18.202Z,101608.09
2023-04-06T00:06:23.580Z,101611.66
2023-04-06T00:09:28.821Z,101614.44
2023-04-06T00:12:34.492Z,101618.13
2023-04-06T00:15:39.547Z,101608.03
2023-04-06T00:18:45.471Z,101610.88
2023-04-06T00:21:51.819Z,101604.50
2023-04-06T00:24:56.929Z,101605.91
2023-04-06T00:28:02.633Z,101602.94
2023-04-06T00:31:08.131Z,101597.88
2023-04-06T00:34:13.555Z,101594.88
2023-04-06T00:37:19.111Z,101593.00
2023-04-06T00:40:25.209Z,101584.97
2023-04-06T00:43:30.794Z,101591.81
2023-04-06T00:46:36.835Z,101588.06
2023-04-06T00:49:41.938Z,101594.97
2023-04-06T00:52:47.223Z,101596.78
2023-04-06T00:55:52.952Z,101587.06
2023-04-06T00:58:59.582Z,101586.63
2023-04-06T01:02:05.599Z,101589.41
2023-04-06T01:05:17.849Z,101581.81
2023-04-06T01:08:30.142Z,101579.47
2023-04-06T01:11:49.845Z,101579.28
2023-04-06T01:14:59.056Z,101581.00
2023-04-06T01:18:08.128Z,101578.38
2023-04-06T01:21:17.042Z,101579.22
2023-04-06T01:24:46.389Z,101578.28
2023-04-06T01:28:00.963Z,101583.59
2023-04-06T01:31:25.923Z,101578.94
2023-04-06T01:34:32.382Z,101574.53
2023-04-06T01:37:42.271Z,101569.00
2023-04-06T01:40:52.756Z,101564.94
2023-04-06T01:44:02.972Z,101564.19
2023-04-06T01:47:10.133Z,101561.41
2023-04-06T01:50:15.717Z,101562.19
2023-04-06T01:53:24.546Z,101556.53
2023-04-06T01:56:32.161Z,101562.84
2023-04-06T01:59:51.179Z,101564.69
2023-04-06T02:03:08.569Z,101566.41
2023-04-06T02:06:14.266Z,101567.44
2023-04-06T02:09:20.262Z,101569.06
2023-04-06T02:12:25.836Z,101565.34
2023-04-06T02:15:31.536Z,101578.31
2023-04-06T02:18:37.934Z,101568.94
2023-04-06T02:21:43.916Z,101572.41
2023-04-06T02:24:49.738Z,101577.94
2023-04-06T02:27:56.492Z,101569.31
2023-04-06T02:31:02.490Z,101572.13
2023-04-06T02:34:12.383Z,101571.56
2023-04-06T02:37:21.836Z,101572.75
2023-04-06T02:40:27.218Z,101580.25
2023-04-06T02:43:33.956Z,101583.22
2023-04-06T02:46:59.907Z,101578.06
2023-04-06T02:50:07.098Z,101578.59
2023-04-06T02:53:18.101Z,101580.59
2023-04-06T02:56:23.766Z,101576.69
2023-04-06T02:59:31.141Z,101573.13
2023-04-06T03:02:45.685Z,101570.63
2023-04-06T03:05:56.099Z,101572.06
2023-04-06T03:09:07.880Z,101570.06
2023-04-06T03:12:14.352Z,101571.06
2023-04-06T03:15:38.676Z,101574.75
2023-04-06T03:18:53.601Z,101576.00
2023-04-06T03:22:00.109Z,101577.19
2023-04-06T03:25:05.999Z,101579.69
2023-04-06T03:28:12.640Z,101577.41
2023-04-06T03:31:28.669Z,101573.75
2023-04-06T03:34:39.688Z,101573.06
2023-04-06T03:37:45.067Z,101573.50
2023-04-06T03:40:50.896Z,101573.84
2023-04-06T03:44:01.343Z,101568.09
2023-04-06T03:47:06.922Z,101571.88
2023-04-06T03:50:13.146Z,101568.22
2023-04-06T03:53:18.454Z,101565.97
2023-04-06T03:56:23.722Z,101571.25
2023-04-06T03:59:28.994Z,101570.88
2023-04-06T04:02:34.191Z,101567.78
2023-04-06T04:05:39.864Z,101569.25
2023-04-06T04:08:45.645Z,101560.22
2023-04-06T04:11:50.850Z,101569.94
2023-04-06T04:14:56.309Z,101570.44
2023-04-06T04:18:02.201Z,101565.00
2023-04-06T04:21:07.554Z,101565.00
2023-04-06T04:24:13.639Z,101569.78
2023-04-06T04:27:19.455Z,101565.50
2023-04-06T04:30:28.005Z,101576.22
2023-04-06T04:33:33.174Z,101572.59
2023-04-06T04:36:43.552Z,101571.91
2023-04-06T04:39:54.294Z,101581.97
2023-04-06T04:42:59.584Z,101574.53
2023-04-06T04:46:11.728Z,101578.69
2023-04-06T04:49:20.788Z,101581.50
2023-04-06T04:52:28.694Z,101582.50
2023-04-06T04:55:52.536Z,101589.41
2023-04-06T04:58:58.976Z,101584.13
2023-04-06T05:02:07.179Z,101589.06
2023-04-06T05:05:21.420Z,101588.75
2023-04-06T05:08:28.841Z,101595.00
2023-04-06T05:11:34.294Z,101598.09
2023-04-06T05:14:40.278Z,101596.59
2023-04-06T05:17:52.115Z,101597.78
2023-04-06T05:21:02.559Z,101594.34
2023-04-06T05:24:16.672Z,101589.75
2023-04-06T05:27:24.464Z,101596.63
2023-04-06T05:30:30.084Z,101598.44
2023-04-06T05:33:35.669Z,101603.50
2023-04-06T05:36:53.402Z,101596.63
2023-04-06T05:40:02.912Z,101604.38
2023-04-06T05:43:09.739Z,101601.22
2023-04-06T05:46:19.783Z,101608.44
2023-04-06T05:49:25.268Z,101607.75
2023-04-06T05:52:31.092Z,101608.50
2023-04-06T05:55:36.643Z,101612.56
2023-04-06T05:58:50.583Z,101622.69
2023-04-06T06:02:02.699Z,101618.22
2023-04-06T06:05:12.006Z,101620.28
2023-04-06T06:08:20.489Z,101617.59
2023-04-06T06:11:29.644Z,101626.13
2023-04-06T06:14:36.297Z,101621.09
2023-04-06T06:17:42.277Z,101621.66
2023-04-06T06:20:47.580Z,101624.59
2023-04-06T06:23:55.140Z,101624.94
2023-04-06T06:27:01.434Z,101626.56
2023-04-06T06:30:11.182Z,101619.22
2023-04-06T06:33:20.362Z,101620.50
2023-04-06T06:36:28.425Z,101629.50
2023-04-06T06:39:34.344Z,101633.16
2023-04-06T06:42:40.024Z,101622.63
2023-04-06T06:45:59.993Z,101623.66
2023-04-06T06:49:06.758Z,101625.38
2023-04-06T06:52:12.613Z,101627.56
2023-04-06T06:55:20.265Z,101628.75
2023-04-06T06:58:25.721Z,101631.47
2023-04-06T07:01:30.978Z,101631.16
2023-04-06T07:04:36.967Z,101629.28
2023-04-06T07:07:42.572Z,101626.31
2023-04-06T07:10:48.755Z,101627.16
2023-04-06T07:13:54.527Z,101631.38
2023-04-06T07:17:00.628Z,101627.22
2023-04-06T07:20:06.892Z,101624.63
2023-04-06T07:23:12.933Z,101627.53
2023-04-06T07:26:18.327Z,101621.78
2023-04-06T07:29:24.219Z,101626.91
2023-04-06T07:32:31.291Z,101626.06
2023-04-06T07:35:38.444Z,101629.53
2023-04-06T07:38:47.222Z,101627.75
2023-04-06T07:41:52.812Z,101631.47
2023-04-06T07:44:58.652Z,101635.16
2023-04-06T07:48:04.891Z,101636.50
2023-04-06T07:51:15.597Z,101636.16
2023-04-06T07:54:22.666Z,101644.69
2023-04-06T07:57:28.119Z,101637.63
2023-04-06T08:00:34.582Z,101637.75
2023-04-06T08:03:40.507Z,101637.44
2023-04-06T08:06:46.317Z,101642.59
2023-04-06T08:09:53.135Z,101645.53
2023-04-06T08:12:58.858Z,101638.34
2023-04-06T08:16:04.789Z,101641.53
2023-04-06T08:19:10.701Z,101642.47
2023-04-06T08:22:16.233Z,101640.38
2023-04-06T08:25:21.470Z,101643.50
2023-04-06T08:28:26.678Z,101636.28
2023-04-06T08:31:32.397Z,101628.84
2023-04-06T08:34:38.550Z,101629.72
2023-04-06T08:37:44.292Z,101634.66
2023-04-06T08:40:52.256Z,101625.66
2023-04-06T08:44:02.621Z,101632.22
2023-04-06T08:47:08.242Z,101631.00
2023-04-06T08:50:14.700Z,101628.16
2023-04-06T08:53:22.910Z,101626.28
2023-04-06T08:56:29.848Z,101620.16
2023-04-06T08:59:36.382Z,101620.75
2023-04-06T09:02:46.073Z,101612.94
2023-04-06T09:05:52.100Z,101611.03
2023-04-06T09:08:59.597Z,101615.47
2023-04-06T09:12:07.469Z,101620.03
2023-04-06T09:15:23.623Z,101614.16
2023-04-06T09:18:35.453Z,101611.22
2023-04-06T09:21:41.387Z,101608.78
2023-04-06T09:24:54.269Z,101613.22
2023-04-06T09:28:05.573Z,101602.13
2023-04-06T09:31:11.363Z,101601.38
2023-04-06T09:34:26.568Z,101601.25
2023-04-06T09:37:31.978Z,101600.63
2023-04-06T09:40:41.460Z,101596.72
2023-04-06T09:43:53.499Z,101593.34
2023-04-06T09:47:00.816Z,101587.28
2023-04-06T09:50:10.520Z,101588.25
2023-04-06T09:53:21.643Z,101580.63
2023-04-06T09:56:32.408Z,101584.13
2023-04-06T09:59:56.346Z,101571.91
2023-04-06T10:03:14.030Z,101568.34
2023-04-06T10:06:24.217Z,101561.47
2023-04-06T10:09:36.905Z,101566.34
2023-04-06T10:12:43.177Z,101552.66
2023-04-06T10:15:49.763Z,101554.25
2023-04-06T10:19:03.681Z,101546.75
2023-04-06T10:22:13.991Z,101541.91
2023-04-06T10:25:31.511Z,101547.31
2023-04-06T10:28:37.595Z,101545.63
2023-04-06T10:31:45.634Z,101533.47
2023-04-06T10:34:51.179Z,101533.41
2023-04-06T10:38:05.872Z,101530.50
2023-04-06T10:41:13.148Z,101523.22
2023-04-06T10:44:22.944Z,101522.06
2023-04-06T10:47:28.130Z,101521.81
2023-04-06T10:50:35.142Z,101523.25
2023-04-06T10:53:43.775Z,101527.53
2023-04-06T10:56:50.083Z,101517.06
2023-04-06T10:59:55.821Z,101518.16
2023-04-06T11:03:04.658Z,101512.69
2023-04-06T11:06:10.160Z,101506.59
2023-04-06T11:09:26.434Z,101504.72
2023-04-06T11:12:32.149Z,101491.81
2023-04-06T11:15:39.420Z,101489.09
2023-04-06T11:19:09.029Z,101485.44
2023-04-06T11:22:14.811Z,101476.34
2023-04-06T11:25:20.726Z,101475.31
2023-04-06T11:28:26.324Z,101467.22
2023-04-06T11:31:31.529Z,101471.34
2023-04-06T11:34:42.271Z,101467.28
2023-04-06T11:37:47.853Z,101461.94
2023-04-06T11:40:56.307Z,101456.56
2023-04-06T11:44:06.686Z,101455.56
2023-04-06T11:47:12.653Z,101449.16
2023-04-06T11:50:17.979Z,101454.88
2023-04-06T11:53:23.154Z,101448.47
2023-04-06T11:56:30.676Z,101436.47
2023-04-06T11:59:37.182Z,101439.38
2023-04-06T12:02:48.504Z,101438.19
2023-04-06T12:05:53.891Z,101437.28
2023-04-06T12:08:59.355Z,101430.78
2023-04-06T12:12:05.107Z,101423.16
2023-04-06T12:15:11.178Z,101415.38
2023-04-06T12:18:16.911Z,101414.22
2023-04-06T12:21:22.284Z,101412.31
2023-04-06T12:24:28.960Z,101406.50
2023-04-06T12:27:34.641Z,101413.63
2023-04-06T12:30:40.798Z,101402.19
2023-04-06T12:33:52.654Z,101395.53
2023-04-06T12:36:58.560Z,101386.94
2023-04-06T12:40:05.554Z,101386.66
2023-04-06T12:43:11.264Z,101385.31
2023-04-06T12:46:17.181Z,101383.13
2023-04-06T12:49:23.242Z,101380.75
2023-04-06T12:52:31.759Z,101373.91
2023-04-06T12:55:37.580Z,101377.97
2023-04-06T12:58:43.350Z,101369.84
2023-04-06T13:01:49.048Z,101374.44
2023-04-06T13:04:54.314Z,101364.91
2023-04-06T13:07:59.770Z,101355.81
2023-04-06T13:11:06.286Z,101352.81
2023-04-06T13:14:11.437Z,101370.31
2023-04-06T13:17:17.977Z,101363.69
2023-04-06T13:20:23.015Z,101352.81
2023-04-06T13:23:28.521Z,101347.59
2023-04-06T13:26:34.191Z,101345.25
2023-04-06T13:29:39.886Z,101344.84
2023-04-06T13:32:45.764Z,101342.66
2023-04-06T13:35:51.599Z,101329.97
2023-04-06T13:38:57.362Z,101333.53
2023-04-06T13:42:04.274Z,101326.88
2023-04-06T13:45:11.109Z,101321.06
2023-04-06T13:48:16.702Z,101326.59
2023-04-06T13:51:21.924Z,101321.78
2023-04-06T13:54:28.599Z,101308.03
2023-04-06T13:57:34.324Z,101306.50
2023-04-06T14:00:39.834Z,101307.72
2023-04-06T14:03:48.839Z,101302.53
2023-04-06T14:06:54.244Z,101296.56
2023-04-06T14:09:59.837Z,101295.59
2023-04-06T14:13:05.457Z,101287.28
2023-04-06T14:16:10.839Z,101292.22
2023-04-06T14:19:22.039Z,101291.09
2023-04-06T14:22:27.610Z,101288.91
2023-04-06T14:25:33.476Z,101287.44
2023-04-06T14:28:39.229Z,101289.22
2023-04-06T14:31:48.788Z,101286.59
2023-04-06T14:34:54.614Z,101286.50
2023-04-06T14:38:00.165Z,101284.28
2023-04-06T14:41:05.332Z,101278.66
2023-04-06T14:44:13.474Z,101283.91
2023-04-06T14:47:21.747Z,101274.72
2023-04-06T14:50:27.510Z,101276.50
2023-04-06T14:53:33.037Z,101279.78
2023-04-06T14:56:39.933Z,101274.13
2023-04-06T14:59:45.627Z,101277.31
2023-04-06T15:02:51.454Z,101273.44
2023-04-06T15:05:58.086Z,101271.31
2023-04-06T15:09:04.180Z,101266.88
2023-04-06T15:12:10.056Z,101264.38
2023-04-06T15:15:15.630Z,101260.31
2023-04-06T15:18:21.486Z,101260.97
2023-04-06T15:21:28.148Z,101250.38
2023-04-06T15:24:33.687Z,101254.13
2023-04-06T15:27:39.144Z,101254.00
2023-04-06T15:30:44.523Z,101249.78
2023-04-06T15:33:50.214Z,101256.28
2023-04-06T15:36:56.013Z,101252.00
2023-04-06T15:40:01.929Z,101252.44
2023-04-06T15:43:07.108Z,101255.53
2023-04-06T15:46:12.881Z,101244.19
2023-04-06T15:49:18.575Z,101246.06
2023-04-06T15:52:24.062Z,101245.88
2023-04-06T15:55:29.651Z,101247.13
2023-04-06T15:58:34.968Z,101239.94
2023-04-06T16:01:42.642Z,101240.78
2023-04-06T16:04:48.131Z,101239.91
2023-04-06T16:07:53.819Z,101243.53
2023-04-06T16:10:59.453Z,101241.47
2023-04-06T16:14:05.543Z,101246.22
2023-04-06T16:17:10.937Z,101239.66
2023-04-06T16:20:16.589Z,101243.31
2023-04-06T16:23:22.537Z,101238.97
2023-04-06T16:26:27.863Z,101244.16
2023-04-06T16:29:36.035Z,101235.00
2023-04-06T16:32:43.661Z,101242.41
2023-04-06T16:35:49.544Z,101239.56
2023-04-06T16:39:00.067Z,101238.41
2023-04-06T16:42:05.632Z,101243.38
2023-04-06T16:45:12.115Z,101237.19
2023-04-06T16:48:18.511Z,101248.31
2023-04-06T16:51:24.152Z,101240.41
2023-04-06T16:54:29.757Z,101241.78
2023-04-06T16:57:34.939Z,101246.00
2023-04-06T17:00:40.894Z,101246.00
2023-04-06T17:03:47.815Z,101247.53
2023-04-06T17:06:53.232Z,101245.44
2023-04-06T17:10:03.788Z,101242.59
2023-04-06T17:13:09.368Z,101251.94
2023-04-06T17:16:14.519Z,101248.38
2023-04-06T17:19:20.048Z,101244.69
2023-04-06T17:22:25.607Z,101246.44
2023-04-06T17:25:31.203Z,101249.91
2023-04-06T17:28:37.085Z,101246.56
2023-04-06T17:31:45.288Z,101241.28
2023-04-06T17:34:51.137Z,101245.13
2023-04-06T17:37:56.591Z,101246.75
2023-04-06T17:41:05.252Z,101250.47
2023-04-06T17:44:10.863Z,101257.19
2023-04-06T17:47:16.773Z,101250.34
2023-04-06T17:50:22.120Z,101251.94
2023-04-06T17:53:30.916Z,101253.91
2023-04-06T17:56:36.165Z,101250.50
2023-04-06T17:59:43.903Z,101255.72
2023-04-06T18:02:54.922Z,101258.72
2023-04-06T18:06:14.801Z,101264.16
2023-04-06T18:09:20.080Z,101269.38
2023-04-06T18:12:25.759Z,101261.44
2023-04-06T18:15:31.602Z,101265.16
2023-04-06T18:18:39.281Z,101273.00
2023-04-06T18:21:44.959Z,101269.25
2023-04-06T18:24:50.612Z,101269.91
2023-04-06T18:27:55.771Z,101269.72
2023-04-06T18:31:05.427Z,101273.44
2023-04-06T18:34:11.494Z,101275.59
2023-04-06T18:37:16.884Z,101269.03
2023-04-06T18:40:39.922Z,101275.78
2023-04-06T18:43:45.255Z,101281.78
2023-04-06T18:46:53.388Z,101278.50
2023-04-06T18:50:00.029Z,101279.78
2023-04-06T18:53:05.355Z,101276.34
2023-04-06T18:56:19.518Z,101276.19
2023-04-06T18:59:26.997Z,101276.25
2023-04-06T19:02:33.746Z,101285.34
2023-04-06T19:05:42.003Z,101289.66
2023-04-06T19:08:47.596Z,101293.59
2023-04-06T19:11:52.887Z,101290.38
2023-04-06T19:14:58.287Z,101292.06
2023-04-06T19:18:04.615Z,101295.78
2023-04-06T19:21:21.803Z,101298.03
2023-04-06T19:24:26.867Z,101290.94
2023-04-06T19:27:32.546Z,101293.59
2023-04-06T19:30:38.075Z,101300.00
2023-04-06T19:33:44.906Z,101306.97
2023-04-06T19:36:50.120Z,101303.72
2023-04-06T19:39:55.573Z,101310.03
2023-04-06T19:43:01.159Z,101312.94
2023-04-06T19:46:06.583Z,101310.13
2023-04-06T19:49:15.730Z,101309.69
2023-04-06T19:52:23.072Z,101314.63
2023-04-06T19:55:28.707Z,101315.22
2023-04-06T19:58:34.280Z,101315.06
2023-04-06T20:01:39.753Z,101306.91
2023-04-06T20:04:44.836Z,101312.75
2023-04-06T20:07:50.421Z,101321.50
2023-04-06T20:11:05.121Z,101310.41
2023-04-06T20:14:10.359Z,101320.72
2023-04-06T20:17:15.770Z,101317.91
2023-04-06T20:20:21.255Z,101320.16
2023-04-06T20:23:27.275Z,101321.03
2023-04-06T20:26:32.735Z,101324.47
2023-04-06T20:29:38.717Z,101328.63
2023-04-06T20:32:44.334Z,101327.16
2023-04-06T20:35:57.680Z,101321.88
2023-04-06T20:39:03.770Z,101330.94
2023-04-06T20:42:09.386Z,101331.59
2023-04-06T20:45:14.638Z,101336.25
2023-04-06T20:48:19.805Z,101344.25
2023-04-06T20:51:25.803Z,101331.41
2023-04-06T20:54:30.951Z,101340.84
2023-04-06T20:57:36.379Z,101340.22
2023-04-06T21:00:41.629Z,101339.63
2023-04-06T21:03:47.022Z,101345.16
2023-04-06T21:06:52.480Z,101349.09
2023-04-06T21:09:58.112Z,101353.78
2023-04-06T21:13:03.576Z,101355.88
2023-04-06T21:16:08.814Z,101357.91
2023-04-06T21:19:14.155Z,101349.72
2023-04-06T21:22:19.314Z,101352.97
2023-04-06T21:25:24.498Z,101347.25
2023-04-06T21:28:30.449Z,101354.22
2023-04-06T21:31:41.317Z,101353.41
2023-04-06T21:34:47.114Z,101355.44
2023-04-06T21:37:52.802Z,101356.06
2023-04-06T21:40:58.203Z,101359.53
2023-04-06T21:44:03.675Z,101351.78
2023-04-06T21:47:09.371Z,101350.13
2023-04-06T21:50:14.741Z,101356.66
2023-04-06T21:53:20.522Z,101358.50
2023-04-06T21:56:26.681Z,101356.44
2023-04-06T21:59:32.996Z,101359.50
2023-04-06T22:02:39.622Z,101350.72
2023-04-06T22:05:45.394Z,101345.03
2023-04-06T22:08:51.221Z,101343.56
2023-04-06T22:11:57.016Z,101341.94
2023-04-06T22:15:02.959Z,101344.00
2023-04-06T22:18:08.471Z,101348.28
2023-04-06T22:21:13.805Z,101345.19
2023-04-06T22:24:18.823Z,101349.06
2023-04-06T22:27:24.230Z,101352.94
2023-04-06T22:30:29.650Z,101354.00
2023-04-06T22:33:35.294Z,101359.25
2023-04-06T22:36:41.483Z,101351.53
2023-04-06T22:39:46.733Z,101351.31
2023-04-06T22:42:52.244Z,101340.06
2023-04-06T22:45:57.610Z,101337.16
2023-04-06T22:49:04.371Z,101339.41
2023-04-06T22:52:09.676Z,101335.56
2023-04-06T22:55:15.622Z,101334.94
2023-04-06T22:58:20.847Z,101337.38
2023-04-06T23:01:26.046Z,101331.72
2023-04-06T23:04:31.444Z,101337.53
2023-04-06T23:07:36.988Z,101334.06
2023-04-06T23:10:42.869Z,101334.50
2023-04-06T23:13:48.251Z,101331.56
2023-04-06T23:16:53.631Z,101333.84
2023-04-06T23:19:58.989Z,101332.38
2023-04-06T23:23:04.433Z,101329.91
2023-04-06T23:26:09.745Z,101324.75
2023-04-06T23:29:15.056Z,101328.72
2023-04-06T23:32:20.215Z,101330.00
2023-04-06T23:35:25.409Z,101333.41
2023-04-06T23:38:30.371Z,101324.72
2023-04-06T23:41:35.878Z,101330.22
2023-04-06T23:44:41.680Z,101336.78
2023-04-06T23:47:47.346Z,101332.50
2023-04-06T23:50:52.986Z,101326.88
2023-04-06T23:53:58.907Z,101324.13
2023-04-06T23:57:04.724Z,101324.88
